<?xml version="1.0" encoding="UTF-8"?>
<gpx version="1.1" creator="2bulu-scraper" xmlns="http://www.topografix.com/GPX/1/1">
  <metadata><name>巧家白鹤驿道</name><desc>source: 2bulu.com trackId=83712658; exported 2026-09-01T18:40:57.042Z</desc>
    <bounds minlat="27.2271691" minlon="102.9039898" maxlat="27.242012" maxlon="102.9156728"/>
    <link href="https://www.2bulu.com/track/t-PSRCJDjbZo3p%252FR2KBg5Tzw%253D%253D.htm"><text>2bulu 源页面</text></link>
  </metadata>
  <wpt lat="27.2272319" lon="102.9156131"><ele>1368</ele><name>
        </name></wpt>
  <wpt lat="27.228891" lon="102.9140221"><ele>1348</ele><name>
        </name></wpt>
  <wpt lat="27.2326399" lon="102.912214"><ele>1325</ele><name>
        </name></wpt>
  <wpt lat="27.2343511" lon="102.9074627"><ele>1282</ele><name>
        </name></wpt>
  <wpt lat="27.2363596" lon="102.9071251"><ele>1271</ele><name>
        </name></wpt>
  <wpt lat="27.2369226" lon="102.9065725"><ele>1281</ele><name>
        </name></wpt>
  <wpt lat="27.2390149" lon="102.9055727"><ele>1263</ele><name>
        </name></wpt>
  <wpt lat="27.2413932" lon="102.9046266"><ele>1213</ele><name>
        </name></wpt>
  <wpt lat="27.242012" lon="102.9039898"><ele>1219</ele><name>
        </name></wpt>
  <wpt lat="27.2407893" lon="102.904939"><ele>1225</ele><name>
        </name></wpt>
  <wpt lat="27.2408522" lon="102.90506"><ele>1225</ele><name>
        </name></wpt>
  <wpt lat="27.2382948" lon="102.9055583"><ele>1240</ele><name>
        </name></wpt>
  <trk><name>巧家白鹤驿道</name>
      <trkseg>
        <trkpt lat="27.2272319" lon="102.9156131"><ele>1367.94</ele><time>2026-05-04T21:53:05.000Z</time></trkpt>
        <trkpt lat="27.2271987" lon="102.9155603"><ele>1367.94</ele><time>2026-05-04T21:53:29.000Z</time></trkpt>
        <trkpt lat="27.2272087" lon="102.9154507"><ele>1367.16</ele><time>2026-05-04T21:53:41.000Z</time></trkpt>
        <trkpt lat="27.2272727" lon="102.9153678"><ele>1367.24</ele><time>2026-05-04T21:53:49.000Z</time></trkpt>
        <trkpt lat="27.2273633" lon="102.915294"><ele>1367.66</ele><time>2026-05-04T21:53:59.000Z</time></trkpt>
        <trkpt lat="27.2274589" lon="102.9152062"><ele>1368.39</ele><time>2026-05-04T21:54:07.000Z</time></trkpt>
        <trkpt lat="27.2275398" lon="102.9151117"><ele>1369.15</ele><time>2026-05-04T21:54:15.000Z</time></trkpt>
        <trkpt lat="27.2276275" lon="102.9150532"><ele>1369.29</ele><time>2026-05-04T21:54:21.000Z</time></trkpt>
        <trkpt lat="27.2276789" lon="102.9150426"><ele>1368.27</ele><time>2026-05-04T21:54:27.000Z</time></trkpt>
        <trkpt lat="27.2277335" lon="102.9149905"><ele>1366.82</ele><time>2026-05-04T21:54:47.000Z</time></trkpt>
        <trkpt lat="27.2278016" lon="102.9149295"><ele>1364.24</ele><time>2026-05-04T21:54:53.000Z</time></trkpt>
        <trkpt lat="27.2278955" lon="102.9148689"><ele>1361.88</ele><time>2026-05-04T21:54:59.000Z</time></trkpt>
        <trkpt lat="27.2279775" lon="102.9148073"><ele>1359.96</ele><time>2026-05-04T21:55:05.000Z</time></trkpt>
        <trkpt lat="27.2280678" lon="102.9147335"><ele>1358.21</ele><time>2026-05-04T21:55:13.000Z</time></trkpt>
        <trkpt lat="27.2281595" lon="102.9146521"><ele>1356.19</ele><time>2026-05-04T21:55:19.000Z</time></trkpt>
        <trkpt lat="27.2282184" lon="102.9145485"><ele>1356.46</ele><time>2026-05-04T21:55:27.000Z</time></trkpt>
        <trkpt lat="27.2282883" lon="102.9144757"><ele>1356.91</ele><time>2026-05-04T21:55:35.000Z</time></trkpt>
        <trkpt lat="27.2283091" lon="102.9144021"><ele>1356.94</ele><time>2026-05-04T21:55:45.000Z</time></trkpt>
        <trkpt lat="27.2283633" lon="102.9143184"><ele>1352.66</ele><time>2026-05-04T21:56:01.000Z</time></trkpt>
        <trkpt lat="27.2284301" lon="102.9142306"><ele>1350.5</ele><time>2026-05-04T21:56:09.000Z</time></trkpt>
        <trkpt lat="27.2285218" lon="102.9141741"><ele>1350.02</ele><time>2026-05-04T21:56:15.000Z</time></trkpt>
        <trkpt lat="27.2286269" lon="102.9141238"><ele>1352.36</ele><time>2026-05-04T21:56:23.000Z</time></trkpt>
        <trkpt lat="27.2287323" lon="102.914082"><ele>1353.76</ele><time>2026-05-04T21:56:31.000Z</time></trkpt>
        <trkpt lat="27.2288216" lon="102.9140394"><ele>1353.99</ele><time>2026-05-04T21:56:39.000Z</time></trkpt>
        <trkpt lat="27.228891" lon="102.9140221"><ele>1353.57</ele><time>2026-05-04T21:56:51.000Z</time></trkpt>
        <trkpt lat="27.2289886" lon="102.9140266"><ele>1351.38</ele><time>2026-05-04T21:57:27.000Z</time></trkpt>
        <trkpt lat="27.2291022" lon="102.9140204"><ele>1350.26</ele><time>2026-05-04T21:57:35.000Z</time></trkpt>
        <trkpt lat="27.2292047" lon="102.9140138"><ele>1348.98</ele><time>2026-05-04T21:57:41.000Z</time></trkpt>
        <trkpt lat="27.2293149" lon="102.9140211"><ele>1347.89</ele><time>2026-05-04T21:57:49.000Z</time></trkpt>
        <trkpt lat="27.2294273" lon="102.9140378"><ele>1345.78</ele><time>2026-05-04T21:57:57.000Z</time></trkpt>
        <trkpt lat="27.2295388" lon="102.914032"><ele>1343.83</ele><time>2026-05-04T21:58:05.000Z</time></trkpt>
        <trkpt lat="27.2296339" lon="102.9140124"><ele>1342.43</ele><time>2026-05-04T21:58:11.000Z</time></trkpt>
        <trkpt lat="27.2297223" lon="102.9139889"><ele>1341.11</ele><time>2026-05-04T21:58:19.000Z</time></trkpt>
        <trkpt lat="27.2298213" lon="102.9139498"><ele>1344.61</ele><time>2026-05-04T21:58:25.000Z</time></trkpt>
        <trkpt lat="27.2299296" lon="102.9138995"><ele>1346.83</ele><time>2026-05-04T21:58:33.000Z</time></trkpt>
        <trkpt lat="27.2300335" lon="102.913861"><ele>1347.44</ele><time>2026-05-04T21:58:41.000Z</time></trkpt>
        <trkpt lat="27.2301435" lon="102.9138239"><ele>1347.29</ele><time>2026-05-04T21:58:49.000Z</time></trkpt>
        <trkpt lat="27.230236" lon="102.9137866"><ele>1346.84</ele><time>2026-05-04T21:58:55.000Z</time></trkpt>
        <trkpt lat="27.2303298" lon="102.9137739"><ele>1346.5</ele><time>2026-05-04T21:59:03.000Z</time></trkpt>
        <trkpt lat="27.2304335" lon="102.9137643"><ele>1345.78</ele><time>2026-05-04T21:59:11.000Z</time></trkpt>
        <trkpt lat="27.2305416" lon="102.9137256"><ele>1345.23</ele><time>2026-05-04T21:59:19.000Z</time></trkpt>
        <trkpt lat="27.2306331" lon="102.9136498"><ele>1344.45</ele><time>2026-05-04T21:59:27.000Z</time></trkpt>
        <trkpt lat="27.2306793" lon="102.9135454"><ele>1343.22</ele><time>2026-05-04T21:59:33.000Z</time></trkpt>
        <trkpt lat="27.2307379" lon="102.9134482"><ele>1342.29</ele><time>2026-05-04T21:59:41.000Z</time></trkpt>
        <trkpt lat="27.2308086" lon="102.9133739"><ele>1341.26</ele><time>2026-05-04T21:59:51.000Z</time></trkpt>
        <trkpt lat="27.2308151" lon="102.9134015"><ele>1339.87</ele><time>2026-05-04T21:59:55.000Z</time></trkpt>
        <trkpt lat="27.2308761" lon="102.9133971"><ele>1336.39</ele><time>2026-05-04T22:00:05.000Z</time></trkpt>
        <trkpt lat="27.230975" lon="102.9133731"><ele>1334.21</ele><time>2026-05-04T22:00:13.000Z</time></trkpt>
        <trkpt lat="27.2310949" lon="102.9133287"><ele>1332.19</ele><time>2026-05-04T22:00:21.000Z</time></trkpt>
        <trkpt lat="27.2312009" lon="102.9132709"><ele>1331.92</ele><time>2026-05-04T22:00:27.000Z</time></trkpt>
        <trkpt lat="27.2313081" lon="102.9132068"><ele>1331.98</ele><time>2026-05-04T22:00:35.000Z</time></trkpt>
        <trkpt lat="27.2313977" lon="102.9131313"><ele>1331.59</ele><time>2026-05-04T22:00:43.000Z</time></trkpt>
        <trkpt lat="27.2314795" lon="102.9130545"><ele>1331.16</ele><time>2026-05-04T22:00:51.000Z</time></trkpt>
        <trkpt lat="27.2315574" lon="102.9129701"><ele>1330.17</ele><time>2026-05-04T22:00:59.000Z</time></trkpt>
        <trkpt lat="27.2316613" lon="102.9129141"><ele>1329</ele><time>2026-05-04T22:01:07.000Z</time></trkpt>
        <trkpt lat="27.2316534" lon="102.9128862"><ele>1328.09</ele><time>2026-05-04T22:01:21.000Z</time></trkpt>
        <trkpt lat="27.2317125" lon="102.91284"><ele>1326.83</ele><time>2026-05-04T22:01:29.000Z</time></trkpt>
        <trkpt lat="27.2318116" lon="102.9128109"><ele>1327.21</ele><time>2026-05-04T22:01:35.000Z</time></trkpt>
        <trkpt lat="27.2319267" lon="102.912789"><ele>1327.4</ele><time>2026-05-04T22:01:43.000Z</time></trkpt>
        <trkpt lat="27.2320365" lon="102.9127636"><ele>1327.46</ele><time>2026-05-04T22:01:51.000Z</time></trkpt>
        <trkpt lat="27.2321283" lon="102.912708"><ele>1326.82</ele><time>2026-05-04T22:01:57.000Z</time></trkpt>
        <trkpt lat="27.2322177" lon="102.9126443"><ele>1326.8</ele><time>2026-05-04T22:02:05.000Z</time></trkpt>
        <trkpt lat="27.2323001" lon="102.9125796"><ele>1325.89</ele><time>2026-05-04T22:02:11.000Z</time></trkpt>
        <trkpt lat="27.2323801" lon="102.9125198"><ele>1325.14</ele><time>2026-05-04T22:02:19.000Z</time></trkpt>
        <trkpt lat="27.2324639" lon="102.9124525"><ele>1324.08</ele><time>2026-05-04T22:02:27.000Z</time></trkpt>
        <trkpt lat="27.2325495" lon="102.912379"><ele>1322.68</ele><time>2026-05-04T22:02:33.000Z</time></trkpt>
        <trkpt lat="27.2326389" lon="102.9123096"><ele>1321.96</ele><time>2026-05-04T22:02:39.000Z</time></trkpt>
        <trkpt lat="27.2326399" lon="102.912214"><ele>1321.75</ele><time>2026-05-04T22:02:59.000Z</time></trkpt>
        <trkpt lat="27.2326693" lon="102.9121132"><ele>1323.26</ele><time>2026-05-04T22:03:27.000Z</time></trkpt>
        <trkpt lat="27.2327025" lon="102.9120046"><ele>1323.09</ele><time>2026-05-04T22:03:35.000Z</time></trkpt>
        <trkpt lat="27.2327408" lon="102.9119012"><ele>1321.94</ele><time>2026-05-04T22:03:41.000Z</time></trkpt>
        <trkpt lat="27.2327765" lon="102.9117974"><ele>1320.46</ele><time>2026-05-04T22:03:49.000Z</time></trkpt>
        <trkpt lat="27.2328337" lon="102.9116835"><ele>1318.93</ele><time>2026-05-04T22:03:59.000Z</time></trkpt>
        <trkpt lat="27.2328937" lon="102.9115925"><ele>1317.69</ele><time>2026-05-04T22:04:03.000Z</time></trkpt>
        <trkpt lat="27.2329014" lon="102.9114877"><ele>1315.75</ele><time>2026-05-04T22:04:09.000Z</time></trkpt>
        <trkpt lat="27.2329259" lon="102.9113695"><ele>1314.32</ele><time>2026-05-04T22:04:17.000Z</time></trkpt>
        <trkpt lat="27.2329936" lon="102.9112578"><ele>1312.7</ele><time>2026-05-04T22:04:23.000Z</time></trkpt>
        <trkpt lat="27.2330383" lon="102.91113"><ele>1311.29</ele><time>2026-05-04T22:04:31.000Z</time></trkpt>
        <trkpt lat="27.2330337" lon="102.9110185"><ele>1310.14</ele><time>2026-05-04T22:04:39.000Z</time></trkpt>
        <trkpt lat="27.2329822" lon="102.9109338"><ele>1308.84</ele><time>2026-05-04T22:04:47.000Z</time></trkpt>
        <trkpt lat="27.232901" lon="102.9108761"><ele>1307.23</ele><time>2026-05-04T22:04:55.000Z</time></trkpt>
        <trkpt lat="27.2328204" lon="102.9108599"><ele>1306.11</ele><time>2026-05-04T22:05:01.000Z</time></trkpt>
        <trkpt lat="27.2327286" lon="102.9108476"><ele>1305.09</ele><time>2026-05-04T22:05:11.000Z</time></trkpt>
        <trkpt lat="27.232625" lon="102.9108269"><ele>1305.15</ele><time>2026-05-04T22:05:17.000Z</time></trkpt>
        <trkpt lat="27.2325315" lon="102.9107802"><ele>1305.07</ele><time>2026-05-04T22:05:23.000Z</time></trkpt>
        <trkpt lat="27.2324566" lon="102.9106885"><ele>1305.2</ele><time>2026-05-04T22:05:31.000Z</time></trkpt>
        <trkpt lat="27.2324086" lon="102.9105906"><ele>1305.06</ele><time>2026-05-04T22:05:37.000Z</time></trkpt>
        <trkpt lat="27.2323758" lon="102.9104715"><ele>1304.7</ele><time>2026-05-04T22:05:45.000Z</time></trkpt>
        <trkpt lat="27.2323564" lon="102.910336"><ele>1304.55</ele><time>2026-05-04T22:05:53.000Z</time></trkpt>
        <trkpt lat="27.2323086" lon="102.9102116"><ele>1305.12</ele><time>2026-05-04T22:06:01.000Z</time></trkpt>
        <trkpt lat="27.2322814" lon="102.9101033"><ele>1305.77</ele><time>2026-05-04T22:06:07.000Z</time></trkpt>
        <trkpt lat="27.2322748" lon="102.9099962"><ele>1305.42</ele><time>2026-05-04T22:06:13.000Z</time></trkpt>
        <trkpt lat="27.2323471" lon="102.9099145"><ele>1304.69</ele><time>2026-05-04T22:06:23.000Z</time></trkpt>
        <trkpt lat="27.2324597" lon="102.9098606"><ele>1303.79</ele><time>2026-05-04T22:06:31.000Z</time></trkpt>
        <trkpt lat="27.2325577" lon="102.9098133"><ele>1303.9</ele><time>2026-05-04T22:06:37.000Z</time></trkpt>
        <trkpt lat="27.232591" lon="102.9098131"><ele>1304.16</ele><time>2026-05-04T22:06:41.000Z</time></trkpt>
        <trkpt lat="27.2326662" lon="102.909809"><ele>1304.21</ele><time>2026-05-04T22:06:49.000Z</time></trkpt>
        <trkpt lat="27.2327707" lon="102.9097725"><ele>1304.25</ele><time>2026-05-04T22:06:57.000Z</time></trkpt>
        <trkpt lat="27.2328611" lon="102.9097222"><ele>1304.96</ele><time>2026-05-04T22:07:03.000Z</time></trkpt>
        <trkpt lat="27.2329369" lon="102.9096448"><ele>1305.15</ele><time>2026-05-04T22:07:11.000Z</time></trkpt>
        <trkpt lat="27.233021" lon="102.9095806"><ele>1305.84</ele><time>2026-05-04T22:07:19.000Z</time></trkpt>
        <trkpt lat="27.2331081" lon="102.9095467"><ele>1306.77</ele><time>2026-05-04T22:07:25.000Z</time></trkpt>
        <trkpt lat="27.233199" lon="102.9095279"><ele>1306.61</ele><time>2026-05-04T22:07:31.000Z</time></trkpt>
        <trkpt lat="27.2332909" lon="102.9095224"><ele>1306.37</ele><time>2026-05-04T22:07:37.000Z</time></trkpt>
        <trkpt lat="27.2333817" lon="102.9095054"><ele>1305.85</ele><time>2026-05-04T22:07:47.000Z</time></trkpt>
        <trkpt lat="27.2334732" lon="102.9094749"><ele>1304.83</ele><time>2026-05-04T22:07:55.000Z</time></trkpt>
        <trkpt lat="27.233556" lon="102.9094264"><ele>1305.21</ele><time>2026-05-04T22:08:01.000Z</time></trkpt>
        <trkpt lat="27.2336494" lon="102.9093613"><ele>1305.98</ele><time>2026-05-04T22:08:07.000Z</time></trkpt>
        <trkpt lat="27.2337584" lon="102.9092815"><ele>1306.2</ele><time>2026-05-04T22:08:13.000Z</time></trkpt>
        <trkpt lat="27.2338535" lon="102.9092223"><ele>1305.86</ele><time>2026-05-04T22:08:19.000Z</time></trkpt>
        <trkpt lat="27.2339406" lon="102.9091778"><ele>1305.64</ele><time>2026-05-04T22:08:27.000Z</time></trkpt>
        <trkpt lat="27.2340136" lon="102.9091119"><ele>1304.78</ele><time>2026-05-04T22:08:39.000Z</time></trkpt>
        <trkpt lat="27.234074" lon="102.9090243"><ele>1303</ele><time>2026-05-04T22:08:47.000Z</time></trkpt>
        <trkpt lat="27.2341375" lon="102.9089286"><ele>1301.2</ele><time>2026-05-04T22:08:53.000Z</time></trkpt>
        <trkpt lat="27.234207" lon="102.9088365"><ele>1299.22</ele><time>2026-05-04T22:08:59.000Z</time></trkpt>
        <trkpt lat="27.2342356" lon="102.9087349"><ele>1297.45</ele><time>2026-05-04T22:09:07.000Z</time></trkpt>
        <trkpt lat="27.2342252" lon="102.9086143"><ele>1296.75</ele><time>2026-05-04T22:09:15.000Z</time></trkpt>
        <trkpt lat="27.2341919" lon="102.9084954"><ele>1295.53</ele><time>2026-05-04T22:09:23.000Z</time></trkpt>
        <trkpt lat="27.2341525" lon="102.9083716"><ele>1294.37</ele><time>2026-05-04T22:09:31.000Z</time></trkpt>
        <trkpt lat="27.2341549" lon="102.9082634"><ele>1292.94</ele><time>2026-05-04T22:09:37.000Z</time></trkpt>
        <trkpt lat="27.2341745" lon="102.9081475"><ele>1291.33</ele><time>2026-05-04T22:09:45.000Z</time></trkpt>
        <trkpt lat="27.2341966" lon="102.9080315"><ele>1289.73</ele><time>2026-05-04T22:09:53.000Z</time></trkpt>
        <trkpt lat="27.2342387" lon="102.9079171"><ele>1288.3</ele><time>2026-05-04T22:10:01.000Z</time></trkpt>
        <trkpt lat="27.2342847" lon="102.9077947"><ele>1286.39</ele><time>2026-05-04T22:10:13.000Z</time></trkpt>
        <trkpt lat="27.2343406" lon="102.9076848"><ele>1284.07</ele><time>2026-05-04T22:10:19.000Z</time></trkpt>
        <trkpt lat="27.2343911" lon="102.90759"><ele>1282.43</ele><time>2026-05-04T22:10:27.000Z</time></trkpt>
        <trkpt lat="27.2344069" lon="102.9074833"><ele>1280.99</ele><time>2026-05-04T22:10:35.000Z</time></trkpt>
        <trkpt lat="27.2344289" lon="102.9073764"><ele>1280.09</ele><time>2026-05-04T22:10:47.000Z</time></trkpt>
        <trkpt lat="27.2344256" lon="102.9073461"><ele>1279.86</ele><time>2026-05-04T22:10:51.000Z</time></trkpt>
        <trkpt lat="27.234374" lon="102.907423"><ele>1279.85</ele><time>2026-05-04T22:11:13.000Z</time></trkpt>
        <trkpt lat="27.2343511" lon="102.9074627"><ele>1280.91</ele><time>2026-05-04T22:11:15.000Z</time></trkpt>
        <trkpt lat="27.2344016" lon="102.9074105"><ele>1281.57</ele><time>2026-05-04T22:12:01.000Z</time></trkpt>
        <trkpt lat="27.234468" lon="102.9073265"><ele>1282.81</ele><time>2026-05-04T22:12:09.000Z</time></trkpt>
        <trkpt lat="27.2345584" lon="102.9073405"><ele>1284.17</ele><time>2026-05-04T22:12:21.000Z</time></trkpt>
        <trkpt lat="27.2346435" lon="102.907395"><ele>1284.09</ele><time>2026-05-04T22:12:27.000Z</time></trkpt>
        <trkpt lat="27.2347257" lon="102.9074643"><ele>1283.54</ele><time>2026-05-04T22:12:35.000Z</time></trkpt>
        <trkpt lat="27.2348385" lon="102.9074983"><ele>1283.02</ele><time>2026-05-04T22:12:43.000Z</time></trkpt>
        <trkpt lat="27.234937" lon="102.9075317"><ele>1282.86</ele><time>2026-05-04T22:12:49.000Z</time></trkpt>
        <trkpt lat="27.2350218" lon="102.9075828"><ele>1282.62</ele><time>2026-05-04T22:12:57.000Z</time></trkpt>
        <trkpt lat="27.2351198" lon="102.90764"><ele>1282.5</ele><time>2026-05-04T22:13:05.000Z</time></trkpt>
        <trkpt lat="27.2352269" lon="102.9076434"><ele>1282.47</ele><time>2026-05-04T22:13:13.000Z</time></trkpt>
        <trkpt lat="27.2353286" lon="102.9076015"><ele>1282.49</ele><time>2026-05-04T22:13:25.000Z</time></trkpt>
        <trkpt lat="27.2354231" lon="102.9075274"><ele>1282.38</ele><time>2026-05-04T22:13:41.000Z</time></trkpt>
        <trkpt lat="27.2355235" lon="102.9074654"><ele>1283.57</ele><time>2026-05-04T22:13:49.000Z</time></trkpt>
        <trkpt lat="27.2356191" lon="102.9074476"><ele>1284.66</ele><time>2026-05-04T22:13:57.000Z</time></trkpt>
        <trkpt lat="27.2356909" lon="102.9073733"><ele>1285.19</ele><time>2026-05-04T22:14:05.000Z</time></trkpt>
        <trkpt lat="27.2357655" lon="102.9072989"><ele>1284.93</ele><time>2026-05-04T22:14:11.000Z</time></trkpt>
        <trkpt lat="27.2358518" lon="102.9072314"><ele>1283.33</ele><time>2026-05-04T22:14:19.000Z</time></trkpt>
        <trkpt lat="27.2358944" lon="102.9072105"><ele>1281.18</ele><time>2026-05-04T22:14:29.000Z</time></trkpt>
        <trkpt lat="27.2359696" lon="102.9071982"><ele>1279.61</ele><time>2026-05-04T22:14:47.000Z</time></trkpt>
        <trkpt lat="27.2360693" lon="102.9072019"><ele>1278.66</ele><time>2026-05-04T22:14:51.000Z</time></trkpt>
        <trkpt lat="27.2361669" lon="102.9071568"><ele>1278.72</ele><time>2026-05-04T22:14:59.000Z</time></trkpt>
        <trkpt lat="27.2362636" lon="102.907112"><ele>1278.22</ele><time>2026-05-04T22:15:07.000Z</time></trkpt>
        <trkpt lat="27.2363632" lon="102.9070899"><ele>1277.11</ele><time>2026-05-04T22:15:17.000Z</time></trkpt>
        <trkpt lat="27.2363596" lon="102.9071251"><ele>1275.47</ele><time>2026-05-04T22:15:23.000Z</time></trkpt>
        <trkpt lat="27.2364043" lon="102.9070892"><ele>1273.54</ele><time>2026-05-04T22:15:49.000Z</time></trkpt>
        <trkpt lat="27.2364271" lon="102.9070004"><ele>1274.78</ele><time>2026-05-04T22:15:57.000Z</time></trkpt>
        <trkpt lat="27.2365003" lon="102.9069034"><ele>1275.92</ele><time>2026-05-04T22:16:05.000Z</time></trkpt>
        <trkpt lat="27.2365529" lon="102.9068479"><ele>1277.21</ele><time>2026-05-04T22:16:11.000Z</time></trkpt>
        <trkpt lat="27.2366526" lon="102.9068138"><ele>1277.84</ele><time>2026-05-04T22:16:33.000Z</time></trkpt>
        <trkpt lat="27.2367069" lon="102.9067268"><ele>1279.09</ele><time>2026-05-04T22:16:43.000Z</time></trkpt>
        <trkpt lat="27.2367708" lon="102.9066405"><ele>1280.08</ele><time>2026-05-04T22:16:51.000Z</time></trkpt>
        <trkpt lat="27.2368544" lon="102.9066005"><ele>1281.03</ele><time>2026-05-04T22:16:57.000Z</time></trkpt>
        <trkpt lat="27.2369226" lon="102.9065725"><ele>1280.94</ele><time>2026-05-04T22:17:03.000Z</time></trkpt>
        <trkpt lat="27.2369991" lon="102.9065059"><ele>1280.76</ele><time>2026-05-04T22:17:29.000Z</time></trkpt>
        <trkpt lat="27.2370761" lon="102.9064313"><ele>1281.91</ele><time>2026-05-04T22:17:35.000Z</time></trkpt>
        <trkpt lat="27.2371481" lon="102.9063421"><ele>1282.88</ele><time>2026-05-04T22:17:43.000Z</time></trkpt>
        <trkpt lat="27.2372278" lon="102.9062718"><ele>1284.3</ele><time>2026-05-04T22:17:53.000Z</time></trkpt>
        <trkpt lat="27.2373357" lon="102.9062703"><ele>1285.19</ele><time>2026-05-04T22:18:01.000Z</time></trkpt>
        <trkpt lat="27.2374452" lon="102.9062561"><ele>1286.25</ele><time>2026-05-04T22:18:07.000Z</time></trkpt>
        <trkpt lat="27.2376539" lon="102.9059647"><ele>1287.14</ele><time>2026-05-04T22:18:19.000Z</time></trkpt>
        <trkpt lat="27.2377357" lon="102.905846"><ele>1282.29</ele><time>2026-05-04T22:18:21.000Z</time></trkpt>
        <trkpt lat="27.2377853" lon="102.9058078"><ele>1278.99</ele><time>2026-05-04T22:18:25.000Z</time></trkpt>
        <trkpt lat="27.2378648" lon="102.9058492"><ele>1275.32</ele><time>2026-05-04T22:18:29.000Z</time></trkpt>
        <trkpt lat="27.2379488" lon="102.9059151"><ele>1271.8</ele><time>2026-05-04T22:18:33.000Z</time></trkpt>
        <trkpt lat="27.2380023" lon="102.9058697"><ele>1268.42</ele><time>2026-05-04T22:18:43.000Z</time></trkpt>
        <trkpt lat="27.2380244" lon="102.9059403"><ele>1265.97</ele><time>2026-05-04T22:19:05.000Z</time></trkpt>
        <trkpt lat="27.2380923" lon="102.9059242"><ele>1263.1</ele><time>2026-05-04T22:19:17.000Z</time></trkpt>
        <trkpt lat="27.238139" lon="102.9058539"><ele>1261.6</ele><time>2026-05-04T22:19:21.000Z</time></trkpt>
        <trkpt lat="27.2381833" lon="102.9057571"><ele>1260.59</ele><time>2026-05-04T22:19:25.000Z</time></trkpt>
        <trkpt lat="27.2381927" lon="102.90572"><ele>1259.45</ele><time>2026-05-04T22:19:27.000Z</time></trkpt>
        <trkpt lat="27.2381861" lon="102.9056976"><ele>1258.55</ele><time>2026-05-04T22:19:33.000Z</time></trkpt>
        <trkpt lat="27.2381445" lon="102.9056775"><ele>1257.88</ele><time>2026-05-04T22:19:51.000Z</time></trkpt>
        <trkpt lat="27.2381885" lon="102.9056168"><ele>1257.65</ele><time>2026-05-04T22:20:09.000Z</time></trkpt>
        <trkpt lat="27.2382697" lon="102.9055465"><ele>1258.1</ele><time>2026-05-04T22:20:17.000Z</time></trkpt>
        <trkpt lat="27.2383583" lon="102.9055604"><ele>1259.2</ele><time>2026-05-04T22:20:25.000Z</time></trkpt>
        <trkpt lat="27.2384566" lon="102.9055996"><ele>1260.2</ele><time>2026-05-04T22:20:33.000Z</time></trkpt>
        <trkpt lat="27.2385586" lon="102.9056141"><ele>1261</ele><time>2026-05-04T22:20:43.000Z</time></trkpt>
        <trkpt lat="27.2386705" lon="102.9055866"><ele>1261.25</ele><time>2026-05-04T22:20:49.000Z</time></trkpt>
        <trkpt lat="27.238773" lon="102.9055725"><ele>1261.24</ele><time>2026-05-04T22:20:59.000Z</time></trkpt>
        <trkpt lat="27.2388796" lon="102.9055651"><ele>1262.11</ele><time>2026-05-04T22:21:07.000Z</time></trkpt>
        <trkpt lat="27.2389858" lon="102.9055706"><ele>1262.64</ele><time>2026-05-04T22:21:17.000Z</time></trkpt>
        <trkpt lat="27.2390149" lon="102.9055727"><ele>1262.97</ele><time>2026-05-04T22:21:19.000Z</time></trkpt>
        <trkpt lat="27.2390819" lon="102.9055048"><ele>1263.19</ele><time>2026-05-04T22:21:27.000Z</time></trkpt>
        <trkpt lat="27.2391613" lon="102.9054497"><ele>1261.59</ele><time>2026-05-04T22:21:31.000Z</time></trkpt>
        <trkpt lat="27.2392829" lon="102.9054562"><ele>1258.71</ele><time>2026-05-04T22:21:37.000Z</time></trkpt>
        <trkpt lat="27.2393947" lon="102.9054927"><ele>1254.73</ele><time>2026-05-04T22:21:43.000Z</time></trkpt>
        <trkpt lat="27.2395847" lon="102.9053793"><ele>1249.68</ele><time>2026-05-04T22:22:01.000Z</time></trkpt>
        <trkpt lat="27.2396684" lon="102.9053302"><ele>1246.28</ele><time>2026-05-04T22:22:03.000Z</time></trkpt>
        <trkpt lat="27.2397157" lon="102.905347"><ele>1244.2</ele><time>2026-05-04T22:22:07.000Z</time></trkpt>
        <trkpt lat="27.2398865" lon="102.9052779"><ele>1243.12</ele><time>2026-05-04T22:22:31.000Z</time></trkpt>
        <trkpt lat="27.23996" lon="102.9052577"><ele>1240.97</ele><time>2026-05-04T22:22:33.000Z</time></trkpt>
        <trkpt lat="27.2400348" lon="102.9052522"><ele>1239.54</ele><time>2026-05-04T22:22:37.000Z</time></trkpt>
        <trkpt lat="27.2401238" lon="102.9052237"><ele>1238.59</ele><time>2026-05-04T22:22:45.000Z</time></trkpt>
        <trkpt lat="27.2401492" lon="102.905176"><ele>1238.81</ele><time>2026-05-04T22:22:47.000Z</time></trkpt>
        <trkpt lat="27.2401642" lon="102.9051519"><ele>1240</ele><time>2026-05-04T22:22:49.000Z</time></trkpt>
        <trkpt lat="27.2401606" lon="102.9052326"><ele>1240.86</ele><time>2026-05-04T22:22:55.000Z</time></trkpt>
        <trkpt lat="27.2401779" lon="102.9053453"><ele>1239.99</ele><time>2026-05-04T22:23:01.000Z</time></trkpt>
        <trkpt lat="27.2402481" lon="102.9053585"><ele>1238.44</ele><time>2026-05-04T22:23:11.000Z</time></trkpt>
        <trkpt lat="27.2409784" lon="102.9048499"><ele>1236.2</ele><time>2026-05-04T22:25:12.000Z</time></trkpt>
        <trkpt lat="27.2410553" lon="102.9049446"><ele>1233.06</ele><time>2026-05-04T22:25:14.000Z</time></trkpt>
        <trkpt lat="27.2411223" lon="102.905022"><ele>1229.35</ele><time>2026-05-04T22:25:18.000Z</time></trkpt>
        <trkpt lat="27.2412126" lon="102.9049473"><ele>1226.53</ele><time>2026-05-04T22:25:40.000Z</time></trkpt>
        <trkpt lat="27.2412334" lon="102.9048896"><ele>1228.56</ele><time>2026-05-04T22:25:42.000Z</time></trkpt>
        <trkpt lat="27.2412453" lon="102.9048563"><ele>1230.82</ele><time>2026-05-04T22:25:44.000Z</time></trkpt>
        <trkpt lat="27.2412409" lon="102.9047924"><ele>1232.64</ele><time>2026-05-04T22:25:48.000Z</time></trkpt>
        <trkpt lat="27.2412983" lon="102.904702"><ele>1235.91</ele><time>2026-05-04T22:25:58.000Z</time></trkpt>
        <trkpt lat="27.2413782" lon="102.9047415"><ele>1235.06</ele><time>2026-05-04T22:26:06.000Z</time></trkpt>
        <trkpt lat="27.2413842" lon="102.9046891"><ele>1228.02</ele><time>2026-05-04T22:26:26.000Z</time></trkpt>
        <trkpt lat="27.2413932" lon="102.9046266"><ele>1220.82</ele><time>2026-05-04T22:26:36.000Z</time></trkpt>
        <trkpt lat="27.241424" lon="102.9045293"><ele>1217.51</ele><time>2026-05-04T22:26:46.000Z</time></trkpt>
        <trkpt lat="27.2414689" lon="102.9044337"><ele>1217.35</ele><time>2026-05-04T22:26:54.000Z</time></trkpt>
        <trkpt lat="27.241527" lon="102.9043664"><ele>1218.7</ele><time>2026-05-04T22:27:02.000Z</time></trkpt>
        <trkpt lat="27.2416149" lon="102.9043429"><ele>1219.21</ele><time>2026-05-04T22:27:12.000Z</time></trkpt>
        <trkpt lat="27.2417066" lon="102.904309"><ele>1219.01</ele><time>2026-05-04T22:27:24.000Z</time></trkpt>
        <trkpt lat="27.2417535" lon="102.9042113"><ele>1219.22</ele><time>2026-05-04T22:27:32.000Z</time></trkpt>
        <trkpt lat="27.241813" lon="102.9041213"><ele>1219.86</ele><time>2026-05-04T22:27:38.000Z</time></trkpt>
        <trkpt lat="27.2418968" lon="102.9040707"><ele>1220.04</ele><time>2026-05-04T22:27:50.000Z</time></trkpt>
        <trkpt lat="27.2419818" lon="102.9040113"><ele>1219.44</ele><time>2026-05-04T22:28:02.000Z</time></trkpt>
        <trkpt lat="27.242012" lon="102.9039898"><ele>1219.46</ele><time>2026-05-04T22:28:04.000Z</time></trkpt>
        <trkpt lat="27.2419019" lon="102.9040612"><ele>1219.41</ele><time>2026-05-04T22:29:26.000Z</time></trkpt>
        <trkpt lat="27.241797" lon="102.9041029"><ele>1218.81</ele><time>2026-05-04T22:29:34.000Z</time></trkpt>
        <trkpt lat="27.2417247" lon="102.9041752"><ele>1218.34</ele><time>2026-05-04T22:29:43.000Z</time></trkpt>
        <trkpt lat="27.241674" lon="102.9042686"><ele>1217.63</ele><time>2026-05-04T22:29:51.000Z</time></trkpt>
        <trkpt lat="27.2416141" lon="102.9043534"><ele>1217.38</ele><time>2026-05-04T22:30:05.000Z</time></trkpt>
        <trkpt lat="27.2415364" lon="102.9044009"><ele>1217.68</ele><time>2026-05-04T22:30:15.000Z</time></trkpt>
        <trkpt lat="27.2414537" lon="102.9044616"><ele>1217.03</ele><time>2026-05-04T22:30:23.000Z</time></trkpt>
        <trkpt lat="27.2413844" lon="102.9045345"><ele>1217.02</ele><time>2026-05-04T22:30:31.000Z</time></trkpt>
        <trkpt lat="27.2413367" lon="102.9046436"><ele>1217.67</ele><time>2026-05-04T22:30:39.000Z</time></trkpt>
        <trkpt lat="27.2413389" lon="102.9047121"><ele>1219.06</ele><time>2026-05-04T22:30:49.000Z</time></trkpt>
        <trkpt lat="27.2413818" lon="102.9048028"><ele>1220.25</ele><time>2026-05-04T22:31:39.000Z</time></trkpt>
        <trkpt lat="27.2413658" lon="102.9048943"><ele>1217.88</ele><time>2026-05-04T22:31:47.000Z</time></trkpt>
        <trkpt lat="27.2412843" lon="102.9048666"><ele>1217.96</ele><time>2026-05-04T22:32:31.000Z</time></trkpt>
        <trkpt lat="27.2412067" lon="102.9047828"><ele>1218.87</ele><time>2026-05-04T22:32:39.000Z</time></trkpt>
        <trkpt lat="27.2411127" lon="102.9047965"><ele>1219.98</ele><time>2026-05-04T22:32:59.000Z</time></trkpt>
        <trkpt lat="27.2410292" lon="102.9048657"><ele>1220.72</ele><time>2026-05-04T22:33:09.000Z</time></trkpt>
        <trkpt lat="27.2409414" lon="102.9048741"><ele>1221.41</ele><time>2026-05-04T22:33:33.000Z</time></trkpt>
        <trkpt lat="27.2408346" lon="102.9048682"><ele>1221.98</ele><time>2026-05-04T22:33:41.000Z</time></trkpt>
        <trkpt lat="27.2407893" lon="102.904939"><ele>1222.86</ele><time>2026-05-04T22:33:51.000Z</time></trkpt>
        <trkpt lat="27.2408522" lon="102.90506"><ele>1223.82</ele><time>2026-05-04T22:34:51.000Z</time></trkpt>
        <trkpt lat="27.2401773" lon="102.9054008"><ele>1224.16</ele><time>2026-05-04T22:36:49.000Z</time></trkpt>
        <trkpt lat="27.2401263" lon="102.9052225"><ele>1217.4</ele><time>2026-05-04T22:36:53.000Z</time></trkpt>
        <trkpt lat="27.2400373" lon="102.9051536"><ele>1219.57</ele><time>2026-05-04T22:37:11.000Z</time></trkpt>
        <trkpt lat="27.2399332" lon="102.9051818"><ele>1226.38</ele><time>2026-05-04T22:37:19.000Z</time></trkpt>
        <trkpt lat="27.2398411" lon="102.9052425"><ele>1231.61</ele><time>2026-05-04T22:37:25.000Z</time></trkpt>
        <trkpt lat="27.2397575" lon="102.905307"><ele>1234.32</ele><time>2026-05-04T22:37:31.000Z</time></trkpt>
        <trkpt lat="27.2396679" lon="102.9053503"><ele>1235.89</ele><time>2026-05-04T22:37:39.000Z</time></trkpt>
        <trkpt lat="27.2395708" lon="102.9053945"><ele>1236.3</ele><time>2026-05-04T22:37:57.000Z</time></trkpt>
        <trkpt lat="27.2394693" lon="102.9054427"><ele>1236.51</ele><time>2026-05-04T22:38:03.000Z</time></trkpt>
        <trkpt lat="27.2394284" lon="102.9054676"><ele>1236.75</ele><time>2026-05-04T22:38:07.000Z</time></trkpt>
        <trkpt lat="27.2393304" lon="102.9054851"><ele>1237.2</ele><time>2026-05-04T22:38:23.000Z</time></trkpt>
        <trkpt lat="27.2392426" lon="102.9055324"><ele>1237.61</ele><time>2026-05-04T22:38:29.000Z</time></trkpt>
        <trkpt lat="27.2391678" lon="102.9055889"><ele>1238.67</ele><time>2026-05-04T22:38:37.000Z</time></trkpt>
        <trkpt lat="27.2390679" lon="102.905597"><ele>1239.85</ele><time>2026-05-04T22:38:45.000Z</time></trkpt>
        <trkpt lat="27.2389743" lon="102.9055758"><ele>1241.03</ele><time>2026-05-04T22:38:51.000Z</time></trkpt>
        <trkpt lat="27.2388723" lon="102.9055418"><ele>1242.63</ele><time>2026-05-04T22:38:59.000Z</time></trkpt>
        <trkpt lat="27.2387675" lon="102.90556"><ele>1243.73</ele><time>2026-05-04T22:39:07.000Z</time></trkpt>
        <trkpt lat="27.2386591" lon="102.9055918"><ele>1243.71</ele><time>2026-05-04T22:39:17.000Z</time></trkpt>
        <trkpt lat="27.2385518" lon="102.9056195"><ele>1243.26</ele><time>2026-05-04T22:39:25.000Z</time></trkpt>
        <trkpt lat="27.2384451" lon="102.9056218"><ele>1242.73</ele><time>2026-05-04T22:39:35.000Z</time></trkpt>
        <trkpt lat="27.238356" lon="102.9055783"><ele>1240.96</ele><time>2026-05-04T22:39:41.000Z</time></trkpt>
        <trkpt lat="27.2382948" lon="102.9055583"><ele>1240.12</ele><time>2026-05-04T22:39:53.000Z</time></trkpt>
        <trkpt lat="27.2382205" lon="102.90561"><ele>1239.88</ele><time>2026-05-04T22:40:27.000Z</time></trkpt>
        <trkpt lat="27.2381533" lon="102.905693"><ele>1240.42</ele><time>2026-05-04T22:40:33.000Z</time></trkpt>
        <trkpt lat="27.2381475" lon="102.9057395"><ele>1240.95</ele><time>2026-05-04T22:40:37.000Z</time></trkpt>
        <trkpt lat="27.2381367" lon="102.9058385"><ele>1241.43</ele><time>2026-05-04T22:40:58.000Z</time></trkpt>
        <trkpt lat="27.2380898" lon="102.9059242"><ele>1242.23</ele><time>2026-05-04T22:41:07.000Z</time></trkpt>
        <trkpt lat="27.2379957" lon="102.9059543"><ele>1243.59</ele><time>2026-05-04T22:41:15.000Z</time></trkpt>
        <trkpt lat="27.2379877" lon="102.9059595"><ele>1246.82</ele><time>2026-05-04T22:41:49.000Z</time></trkpt>
        <trkpt lat="27.2379252" lon="102.9059924"><ele>1250.44</ele><time>2026-05-04T22:41:59.000Z</time></trkpt>
        <trkpt lat="27.2378438" lon="102.9060412"><ele>1252.01</ele><time>2026-05-04T22:42:05.000Z</time></trkpt>
        <trkpt lat="27.2377652" lon="102.9061057"><ele>1253.45</ele><time>2026-05-04T22:42:11.000Z</time></trkpt>
        <trkpt lat="27.2377143" lon="102.9061062"><ele>1254.91</ele><time>2026-05-04T22:42:23.000Z</time></trkpt>
        <trkpt lat="27.2377311" lon="102.9061705"><ele>1255.53</ele><time>2026-05-04T22:42:35.000Z</time></trkpt>
        <trkpt lat="27.2376842" lon="102.9062569"><ele>1256.47</ele><time>2026-05-04T22:42:45.000Z</time></trkpt>
        <trkpt lat="27.237611" lon="102.9063325"><ele>1256.84</ele><time>2026-05-04T22:42:53.000Z</time></trkpt>
        <trkpt lat="27.2375182" lon="102.9063279"><ele>1256.83</ele><time>2026-05-04T22:42:59.000Z</time></trkpt>
        <trkpt lat="27.2374039" lon="102.9063367"><ele>1257.22</ele><time>2026-05-04T22:43:05.000Z</time></trkpt>
        <trkpt lat="27.2372909" lon="102.906363"><ele>1257.41</ele><time>2026-05-04T22:43:13.000Z</time></trkpt>
        <trkpt lat="27.2372499" lon="102.9063839"><ele>1257.53</ele><time>2026-05-04T22:43:23.000Z</time></trkpt>
        <trkpt lat="27.2371994" lon="102.906452"><ele>1257.61</ele><time>2026-05-04T22:43:55.000Z</time></trkpt>
        <trkpt lat="27.2371171" lon="102.9065044"><ele>1257.64</ele><time>2026-05-04T22:44:03.000Z</time></trkpt>
        <trkpt lat="27.2370299" lon="102.9065654"><ele>1257.84</ele><time>2026-05-04T22:44:11.000Z</time></trkpt>
        <trkpt lat="27.2369392" lon="102.9066173"><ele>1259.25</ele><time>2026-05-04T22:44:17.000Z</time></trkpt>
        <trkpt lat="27.2368397" lon="102.9066594"><ele>1260.83</ele><time>2026-05-04T22:44:23.000Z</time></trkpt>
        <trkpt lat="27.2367529" lon="102.906714"><ele>1261.61</ele><time>2026-05-04T22:44:31.000Z</time></trkpt>
        <trkpt lat="27.2366814" lon="102.9067973"><ele>1262.91</ele><time>2026-05-04T22:44:39.000Z</time></trkpt>
        <trkpt lat="27.2366027" lon="102.9068719"><ele>1264.73</ele><time>2026-05-04T22:44:45.000Z</time></trkpt>
        <trkpt lat="27.2365127" lon="102.9069236"><ele>1266.88</ele><time>2026-05-04T22:44:55.000Z</time></trkpt>
        <trkpt lat="27.2364249" lon="102.9069582"><ele>1268.36</ele><time>2026-05-04T22:45:03.000Z</time></trkpt>
        <trkpt lat="27.2363746" lon="102.9070344"><ele>1270.25</ele><time>2026-05-04T22:45:11.000Z</time></trkpt>
        <trkpt lat="27.2363176" lon="102.9071119"><ele>1271.55</ele><time>2026-05-04T22:45:19.000Z</time></trkpt>
        <trkpt lat="27.2362178" lon="102.9071941"><ele>1273.1</ele><time>2026-05-04T22:45:27.000Z</time></trkpt>
        <trkpt lat="27.2361322" lon="102.9072495"><ele>1275.03</ele><time>2026-05-04T22:45:35.000Z</time></trkpt>
        <trkpt lat="27.2361507" lon="102.9072667"><ele>1275.65</ele><time>2026-05-04T22:45:51.000Z</time></trkpt>
        <trkpt lat="27.2361049" lon="102.9073205"><ele>1271.37</ele><time>2026-05-04T22:46:05.000Z</time></trkpt>
        <trkpt lat="27.2360375" lon="102.9073398"><ele>1268.19</ele><time>2026-05-04T22:46:17.000Z</time></trkpt>
        <trkpt lat="27.2359487" lon="102.9073378"><ele>1267.19</ele><time>2026-05-04T22:46:29.000Z</time></trkpt>
        <trkpt lat="27.2358433" lon="102.9073213"><ele>1266.81</ele><time>2026-05-04T22:46:37.000Z</time></trkpt>
        <trkpt lat="27.2357615" lon="102.9073726"><ele>1267.82</ele><time>2026-05-04T22:46:43.000Z</time></trkpt>
        <trkpt lat="27.235681" lon="102.9074415"><ele>1268.24</ele><time>2026-05-04T22:46:53.000Z</time></trkpt>
        <trkpt lat="27.235576" lon="102.9074789"><ele>1269.83</ele><time>2026-05-04T22:46:59.000Z</time></trkpt>
        <trkpt lat="27.2354685" lon="102.9074626"><ele>1270.78</ele><time>2026-05-04T22:47:05.000Z</time></trkpt>
        <trkpt lat="27.2353688" lon="102.9074839"><ele>1273.18</ele><time>2026-05-04T22:47:11.000Z</time></trkpt>
        <trkpt lat="27.2352805" lon="102.9075252"><ele>1274.46</ele><time>2026-05-04T22:47:17.000Z</time></trkpt>
        <trkpt lat="27.2351725" lon="102.9075577"><ele>1276.16</ele><time>2026-05-04T22:47:27.000Z</time></trkpt>
        <trkpt lat="27.23507" lon="102.9075989"><ele>1277.51</ele><time>2026-05-04T22:47:35.000Z</time></trkpt>
        <trkpt lat="27.2349667" lon="102.9075752"><ele>1276.85</ele><time>2026-05-04T22:47:43.000Z</time></trkpt>
        <trkpt lat="27.2348638" lon="102.9075331"><ele>1276.56</ele><time>2026-05-04T22:47:49.000Z</time></trkpt>
        <trkpt lat="27.2347713" lon="102.9075006"><ele>1275.72</ele><time>2026-05-04T22:47:55.000Z</time></trkpt>
        <trkpt lat="27.2346805" lon="102.9074604"><ele>1274.48</ele><time>2026-05-04T22:48:03.000Z</time></trkpt>
        <trkpt lat="27.2345965" lon="102.907402"><ele>1273.28</ele><time>2026-05-04T22:48:09.000Z</time></trkpt>
        <trkpt lat="27.234512" lon="102.9073174"><ele>1272.35</ele><time>2026-05-04T22:48:17.000Z</time></trkpt>
        <trkpt lat="27.2344189" lon="102.9073179"><ele>1271.55</ele><time>2026-05-04T22:48:27.000Z</time></trkpt>
        <trkpt lat="27.2343675" lon="102.9073962"><ele>1270.83</ele><time>2026-05-04T22:48:33.000Z</time></trkpt>
        <trkpt lat="27.2343437" lon="102.907523"><ele>1270.56</ele><time>2026-05-04T22:48:41.000Z</time></trkpt>
        <trkpt lat="27.2343022" lon="102.9076544"><ele>1271.17</ele><time>2026-05-04T22:48:49.000Z</time></trkpt>
        <trkpt lat="27.2342772" lon="102.9077753"><ele>1271.99</ele><time>2026-05-04T22:48:57.000Z</time></trkpt>
        <trkpt lat="27.2342411" lon="102.9078868"><ele>1273.2</ele><time>2026-05-04T22:49:05.000Z</time></trkpt>
        <trkpt lat="27.2341943" lon="102.907999"><ele>1274.48</ele><time>2026-05-04T22:49:13.000Z</time></trkpt>
        <trkpt lat="27.2341605" lon="102.9081116"><ele>1276.21</ele><time>2026-05-04T22:49:19.000Z</time></trkpt>
        <trkpt lat="27.2341269" lon="102.9082203"><ele>1278.18</ele><time>2026-05-04T22:49:27.000Z</time></trkpt>
        <trkpt lat="27.2340996" lon="102.9083243"><ele>1279.53</ele><time>2026-05-04T22:49:35.000Z</time></trkpt>
        <trkpt lat="27.2340872" lon="102.9084311"><ele>1280.97</ele><time>2026-05-04T22:49:43.000Z</time></trkpt>
        <trkpt lat="27.234083" lon="102.9085478"><ele>1281.65</ele><time>2026-05-04T22:49:51.000Z</time></trkpt>
        <trkpt lat="27.2341069" lon="102.9086698"><ele>1282.42</ele><time>2026-05-04T22:49:57.000Z</time></trkpt>
        <trkpt lat="27.2341579" lon="102.9087916"><ele>1282.98</ele><time>2026-05-04T22:50:05.000Z</time></trkpt>
        <trkpt lat="27.234178" lon="102.9089044"><ele>1283.45</ele><time>2026-05-04T22:50:13.000Z</time></trkpt>
        <trkpt lat="27.2341444" lon="102.9089949"><ele>1284.08</ele><time>2026-05-04T22:50:19.000Z</time></trkpt>
        <trkpt lat="27.2340859" lon="102.9090904"><ele>1284.67</ele><time>2026-05-04T22:50:27.000Z</time></trkpt>
        <trkpt lat="27.2340242" lon="102.9091941"><ele>1285.14</ele><time>2026-05-04T22:50:35.000Z</time></trkpt>
        <trkpt lat="27.2339518" lon="102.9092792"><ele>1285.38</ele><time>2026-05-04T22:50:43.000Z</time></trkpt>
        <trkpt lat="27.2338585" lon="102.9093357"><ele>1286.75</ele><time>2026-05-04T22:50:49.000Z</time></trkpt>
        <trkpt lat="27.2337593" lon="102.9093688"><ele>1288.66</ele><time>2026-05-04T22:50:55.000Z</time></trkpt>
        <trkpt lat="27.2336476" lon="102.9094008"><ele>1290.66</ele><time>2026-05-04T22:51:03.000Z</time></trkpt>
        <trkpt lat="27.2335544" lon="102.9094401"><ele>1292.41</ele><time>2026-05-04T22:51:09.000Z</time></trkpt>
        <trkpt lat="27.233478" lon="102.9095003"><ele>1294.37</ele><time>2026-05-04T22:51:15.000Z</time></trkpt>
        <trkpt lat="27.2334014" lon="102.9095577"><ele>1295.82</ele><time>2026-05-04T22:51:23.000Z</time></trkpt>
        <trkpt lat="27.2333039" lon="102.9095969"><ele>1298.05</ele><time>2026-05-04T22:51:31.000Z</time></trkpt>
        <trkpt lat="27.2332085" lon="102.9096219"><ele>1300.84</ele><time>2026-05-04T22:51:37.000Z</time></trkpt>
        <trkpt lat="27.233099" lon="102.9096444"><ele>1302.29</ele><time>2026-05-04T22:51:45.000Z</time></trkpt>
        <trkpt lat="27.2329885" lon="102.909666"><ele>1303.04</ele><time>2026-05-04T22:51:53.000Z</time></trkpt>
        <trkpt lat="27.2328958" lon="102.9096985"><ele>1303.24</ele><time>2026-05-04T22:52:01.000Z</time></trkpt>
        <trkpt lat="27.2328208" lon="102.9097582"><ele>1303.47</ele><time>2026-05-04T22:52:09.000Z</time></trkpt>
        <trkpt lat="27.2327446" lon="102.9098286"><ele>1304.24</ele><time>2026-05-04T22:52:17.000Z</time></trkpt>
        <trkpt lat="27.2326452" lon="102.9098635"><ele>1304.54</ele><time>2026-05-04T22:52:25.000Z</time></trkpt>
        <trkpt lat="27.2325365" lon="102.9099007"><ele>1305.07</ele><time>2026-05-04T22:52:33.000Z</time></trkpt>
        <trkpt lat="27.232452" lon="102.9099533"><ele>1305.13</ele><time>2026-05-04T22:52:41.000Z</time></trkpt>
        <trkpt lat="27.2323603" lon="102.910011"><ele>1304.86</ele><time>2026-05-04T22:52:51.000Z</time></trkpt>
        <trkpt lat="27.2322652" lon="102.9100353"><ele>1303.83</ele><time>2026-05-04T22:52:57.000Z</time></trkpt>
        <trkpt lat="27.2322576" lon="102.9101421"><ele>1303.1</ele><time>2026-05-04T22:53:07.000Z</time></trkpt>
        <trkpt lat="27.232292" lon="102.9102722"><ele>1301.78</ele><time>2026-05-04T22:53:15.000Z</time></trkpt>
        <trkpt lat="27.2323386" lon="102.9103864"><ele>1300.18</ele><time>2026-05-04T22:53:23.000Z</time></trkpt>
        <trkpt lat="27.2323908" lon="102.9105033"><ele>1299.23</ele><time>2026-05-04T22:53:31.000Z</time></trkpt>
        <trkpt lat="27.2324435" lon="102.9106132"><ele>1298.63</ele><time>2026-05-04T22:53:39.000Z</time></trkpt>
        <trkpt lat="27.2325061" lon="102.9107092"><ele>1297.63</ele><time>2026-05-04T22:53:45.000Z</time></trkpt>
        <trkpt lat="27.2325757" lon="102.9108004"><ele>1296.06</ele><time>2026-05-04T22:53:53.000Z</time></trkpt>
        <trkpt lat="27.2326703" lon="102.9108519"><ele>1294.92</ele><time>2026-05-04T22:54:01.000Z</time></trkpt>
        <trkpt lat="27.2327756" lon="102.9108793"><ele>1293.47</ele><time>2026-05-04T22:54:09.000Z</time></trkpt>
        <trkpt lat="27.2328838" lon="102.9109154"><ele>1291.83</ele><time>2026-05-04T22:54:17.000Z</time></trkpt>
        <trkpt lat="27.2329818" lon="102.9109594"><ele>1290.6</ele><time>2026-05-04T22:54:25.000Z</time></trkpt>
        <trkpt lat="27.2330486" lon="102.9110406"><ele>1290.17</ele><time>2026-05-04T22:54:31.000Z</time></trkpt>
        <trkpt lat="27.2330992" lon="102.9111367"><ele>1289.98</ele><time>2026-05-04T22:54:37.000Z</time></trkpt>
        <trkpt lat="27.2331183" lon="102.9112469"><ele>1290.26</ele><time>2026-05-04T22:54:45.000Z</time></trkpt>
        <trkpt lat="27.233061" lon="102.9113581"><ele>1290.37</ele><time>2026-05-04T22:54:51.000Z</time></trkpt>
        <trkpt lat="27.2330064" lon="102.9114832"><ele>1291.64</ele><time>2026-05-04T22:54:59.000Z</time></trkpt>
        <trkpt lat="27.2329644" lon="102.9116095"><ele>1294.06</ele><time>2026-05-04T22:55:07.000Z</time></trkpt>
        <trkpt lat="27.2329263" lon="102.911719"><ele>1296.59</ele><time>2026-05-04T22:55:15.000Z</time></trkpt>
        <trkpt lat="27.2328559" lon="102.9118014"><ele>1298.81</ele><time>2026-05-04T22:55:23.000Z</time></trkpt>
        <trkpt lat="27.2328067" lon="102.9118924"><ele>1301.17</ele><time>2026-05-04T22:55:31.000Z</time></trkpt>
        <trkpt lat="27.2327909" lon="102.9119965"><ele>1302.76</ele><time>2026-05-04T22:55:40.000Z</time></trkpt>
        <trkpt lat="27.2327649" lon="102.9121018"><ele>1303</ele><time>2026-05-04T22:55:48.000Z</time></trkpt>
        <trkpt lat="27.2327371" lon="102.9122021"><ele>1302.07</ele><time>2026-05-04T22:55:54.000Z</time></trkpt>
        <trkpt lat="27.2326956" lon="102.912297"><ele>1301.15</ele><time>2026-05-04T22:56:00.000Z</time></trkpt>
        <trkpt lat="27.2326145" lon="102.912387"><ele>1301.06</ele><time>2026-05-04T22:56:08.000Z</time></trkpt>
        <trkpt lat="27.2325398" lon="102.912484"><ele>1302.29</ele><time>2026-05-04T22:56:16.000Z</time></trkpt>
        <trkpt lat="27.2324516" lon="102.9125655"><ele>1303.64</ele><time>2026-05-04T22:56:24.000Z</time></trkpt>
        <trkpt lat="27.232356" lon="102.9126183"><ele>1305.46</ele><time>2026-05-04T22:56:30.000Z</time></trkpt>
        <trkpt lat="27.2322657" lon="102.9126609"><ele>1308.08</ele><time>2026-05-04T22:56:36.000Z</time></trkpt>
        <trkpt lat="27.2321754" lon="102.9127153"><ele>1311.24</ele><time>2026-05-04T22:56:44.000Z</time></trkpt>
        <trkpt lat="27.2320771" lon="102.9127792"><ele>1316.07</ele><time>2026-05-04T22:56:52.000Z</time></trkpt>
        <trkpt lat="27.2319791" lon="102.9128349"><ele>1320.4</ele><time>2026-05-04T22:57:02.000Z</time></trkpt>
        <trkpt lat="27.231886" lon="102.9128627"><ele>1325.68</ele><time>2026-05-04T22:57:08.000Z</time></trkpt>
        <trkpt lat="27.2317961" lon="102.9128754"><ele>1330.01</ele><time>2026-05-04T22:57:14.000Z</time></trkpt>
        <trkpt lat="27.2317021" lon="102.9129026"><ele>1333.31</ele><time>2026-05-04T22:57:20.000Z</time></trkpt>
        <trkpt lat="27.2316033" lon="102.9129144"><ele>1336.3</ele><time>2026-05-04T22:57:28.000Z</time></trkpt>
        <trkpt lat="27.2315034" lon="102.9129545"><ele>1338.48</ele><time>2026-05-04T22:57:36.000Z</time></trkpt>
        <trkpt lat="27.2314238" lon="102.9130142"><ele>1339.6</ele><time>2026-05-04T22:57:44.000Z</time></trkpt>
        <trkpt lat="27.2313627" lon="102.9131031"><ele>1338.76</ele><time>2026-05-04T22:57:56.000Z</time></trkpt>
        <trkpt lat="27.2313315" lon="102.9131514"><ele>1335.35</ele><time>2026-05-04T22:58:08.000Z</time></trkpt>
        <trkpt lat="27.2312782" lon="102.9132431"><ele>1333.22</ele><time>2026-05-04T22:58:36.000Z</time></trkpt>
        <trkpt lat="27.2311997" lon="102.9133187"><ele>1332.08</ele><time>2026-05-04T22:58:42.000Z</time></trkpt>
        <trkpt lat="27.231115" lon="102.9133707"><ele>1331.47</ele><time>2026-05-04T22:58:48.000Z</time></trkpt>
        <trkpt lat="27.2310199" lon="102.9134214"><ele>1330.95</ele><time>2026-05-04T22:58:56.000Z</time></trkpt>
        <trkpt lat="27.2309213" lon="102.9134543"><ele>1330.74</ele><time>2026-05-04T22:59:02.000Z</time></trkpt>
        <trkpt lat="27.2308282" lon="102.9134904"><ele>1330.94</ele><time>2026-05-04T22:59:10.000Z</time></trkpt>
        <trkpt lat="27.2307291" lon="102.9135347"><ele>1332.25</ele><time>2026-05-04T22:59:18.000Z</time></trkpt>
        <trkpt lat="27.2306487" lon="102.9136145"><ele>1334.29</ele><time>2026-05-04T22:59:28.000Z</time></trkpt>
        <trkpt lat="27.2305923" lon="102.913718"><ele>1336.34</ele><time>2026-05-04T22:59:36.000Z</time></trkpt>
        <trkpt lat="27.2305155" lon="102.9138224"><ele>1338.43</ele><time>2026-05-04T22:59:42.000Z</time></trkpt>
        <trkpt lat="27.230431" lon="102.9138845"><ele>1340.66</ele><time>2026-05-04T22:59:48.000Z</time></trkpt>
        <trkpt lat="27.2303279" lon="102.9138985"><ele>1343.49</ele><time>2026-05-04T22:59:56.000Z</time></trkpt>
        <trkpt lat="27.2302268" lon="102.9139056"><ele>1344.35</ele><time>2026-05-04T23:00:04.000Z</time></trkpt>
        <trkpt lat="27.2301266" lon="102.913935"><ele>1344.74</ele><time>2026-05-04T23:00:12.000Z</time></trkpt>
        <trkpt lat="27.2300311" lon="102.9139472"><ele>1345.33</ele><time>2026-05-04T23:00:18.000Z</time></trkpt>
        <trkpt lat="27.2299389" lon="102.9139635"><ele>1345.64</ele><time>2026-05-04T23:00:24.000Z</time></trkpt>
        <trkpt lat="27.2298354" lon="102.9140021"><ele>1346.04</ele><time>2026-05-04T23:00:32.000Z</time></trkpt>
        <trkpt lat="27.2297313" lon="102.9140332"><ele>1346.62</ele><time>2026-05-04T23:00:38.000Z</time></trkpt>
        <trkpt lat="27.2296194" lon="102.914037"><ele>1347.42</ele><time>2026-05-04T23:00:46.000Z</time></trkpt>
        <trkpt lat="27.2295246" lon="102.9140526"><ele>1348.24</ele><time>2026-05-04T23:00:52.000Z</time></trkpt>
        <trkpt lat="27.229429" lon="102.9140548"><ele>1348.48</ele><time>2026-05-04T23:01:00.000Z</time></trkpt>
        <trkpt lat="27.2293208" lon="102.9140625"><ele>1349</ele><time>2026-05-04T23:01:08.000Z</time></trkpt>
        <trkpt lat="27.2292236" lon="102.914099"><ele>1349.45</ele><time>2026-05-04T23:01:14.000Z</time></trkpt>
        <trkpt lat="27.229114" lon="102.914116"><ele>1349.87</ele><time>2026-05-04T23:01:22.000Z</time></trkpt>
        <trkpt lat="27.2290095" lon="102.9141052"><ele>1351.28</ele><time>2026-05-04T23:01:28.000Z</time></trkpt>
        <trkpt lat="27.2289171" lon="102.9140795"><ele>1352.58</ele><time>2026-05-04T23:01:34.000Z</time></trkpt>
        <trkpt lat="27.2288228" lon="102.9140872"><ele>1353.95</ele><time>2026-05-04T23:01:42.000Z</time></trkpt>
        <trkpt lat="27.2287311" lon="102.9141313"><ele>1354.74</ele><time>2026-05-04T23:01:50.000Z</time></trkpt>
        <trkpt lat="27.2286406" lon="102.9141639"><ele>1355.68</ele><time>2026-05-04T23:01:58.000Z</time></trkpt>
        <trkpt lat="27.2285383" lon="102.9142054"><ele>1356.59</ele><time>2026-05-04T23:02:06.000Z</time></trkpt>
        <trkpt lat="27.228448" lon="102.9142458"><ele>1357.04</ele><time>2026-05-04T23:02:12.000Z</time></trkpt>
        <trkpt lat="27.2283504" lon="102.9142977"><ele>1357.12</ele><time>2026-05-04T23:02:20.000Z</time></trkpt>
        <trkpt lat="27.2282628" lon="102.9143833"><ele>1357.85</ele><time>2026-05-04T23:02:28.000Z</time></trkpt>
        <trkpt lat="27.2281994" lon="102.9144741"><ele>1358.12</ele><time>2026-05-04T23:02:34.000Z</time></trkpt>
        <trkpt lat="27.2281218" lon="102.9145413"><ele>1357.94</ele><time>2026-05-04T23:02:42.000Z</time></trkpt>
        <trkpt lat="27.2280501" lon="102.9146263"><ele>1358.31</ele><time>2026-05-04T23:02:50.000Z</time></trkpt>
        <trkpt lat="27.2279869" lon="102.9147212"><ele>1358.59</ele><time>2026-05-04T23:02:56.000Z</time></trkpt>
        <trkpt lat="27.2279214" lon="102.9148185"><ele>1358.91</ele><time>2026-05-04T23:03:02.000Z</time></trkpt>
        <trkpt lat="27.2278529" lon="102.9149015"><ele>1359.16</ele><time>2026-05-04T23:03:08.000Z</time></trkpt>
        <trkpt lat="27.2277696" lon="102.9149807"><ele>1359.55</ele><time>2026-05-04T23:03:18.000Z</time></trkpt>
        <trkpt lat="27.227689" lon="102.9150488"><ele>1360.17</ele><time>2026-05-04T23:03:26.000Z</time></trkpt>
        <trkpt lat="27.2276105" lon="102.9151151"><ele>1361.92</ele><time>2026-05-04T23:03:34.000Z</time></trkpt>
        <trkpt lat="27.227533" lon="102.915182"><ele>1364.09</ele><time>2026-05-04T23:03:42.000Z</time></trkpt>
        <trkpt lat="27.2274478" lon="102.9152584"><ele>1366.54</ele><time>2026-05-04T23:03:50.000Z</time></trkpt>
        <trkpt lat="27.2273698" lon="102.9153268"><ele>1368.81</ele><time>2026-05-04T23:03:56.000Z</time></trkpt>
        <trkpt lat="27.2272926" lon="102.9153885"><ele>1370.45</ele><time>2026-05-04T23:04:02.000Z</time></trkpt>
        <trkpt lat="27.2272076" lon="102.9154587"><ele>1371.81</ele><time>2026-05-04T23:04:10.000Z</time></trkpt>
        <trkpt lat="27.2271879" lon="102.9155675"><ele>1373.82</ele><time>2026-05-04T23:04:20.000Z</time></trkpt>
        <trkpt lat="27.2271691" lon="102.9156728"><ele>1374.74</ele><time>2026-05-04T23:04:30.000Z</time></trkpt>
        <trkpt lat="27.2271691" lon="102.9156728"><ele>1374.74</ele><time>2026-05-04T23:04:32.000Z</time></trkpt>
      </trkseg>
  </trk>
</gpx>